Star City, IN

1:10 PM EST on January 29, 2015 (GMT -0500)
Starke County | Change Station
CLOSE
Current Station
Airport
Location: Knox,
Elevation: 686 ft
Nearby Weather Stations

Elev 686 ft 41.33 °N, 86.66 °W | Updated 15 minutes ago

Overcast
Overcast
33 °F
Feels Like 22 °F
N
20
Wind Variable Wind from NW
Gusts 26 mph

Today
High -- | Low -- °F
--% Chance of Precip.
Yesterday
High -- | Low -- °F
Precip. -- in
7:59 AM 5:59 PM
Waxing Gibbous, 76% visible
Pressure 29.86 in
Visibility 2.0 miles
Clouds Overcast 1200 ft
Windchill 22 °F
Dew Point 23 °F
Humidity 67%
Rainfall 0.00 in
Snow Depth Not available.
UV 1 out of 12
Pollen .10 out of 12
Air Quality Not available.
Flu Activity Not available.
METAR KOXI 291755Z AUTO 32017G23KT 2SM OVC012 01/M05 A2986 RMK AO1 T00061049 10273 21226

More Conditions Fewer Conditions

Pressure 29.86 in
Visibility 2.0 miles
Clouds Overcast 1200 ft
Windchill 22 °F
Dew Point 23 °F
Humidity 67%
Rainfall 0.00 in
Snow Depth Not available.
UV 1 out of 12
Pollen .10 out of 12
Air Quality Not available.
Flu Activity Not available.
METAR KOXI 291755Z AUTO 32017G23KT 2SM OVC012 01/M05 A2986 RMK AO1 T00061049 10273 21226

More Conditions Fewer Conditions

10-Day Weather Forecast

Almanac

Astronomy

Jan. 29, 2015 Rise Set
Actual Time
Civil Twilight
Nautical Twilight
Astronomical Twilight
Moon
Length of Visible Light
Length of Day
Tomorrow will be .
, % of the Moon is Illuminated

Today's Extremes

State Highs State Lows

Community

WunderPhotos

Upload Photos

1,791,505 photos uploaded!

WunderBlogs® & News

Nearby

Air Quality

  Air Quality AQ Index Pollutant
Not available.

Snow Depth

Station Depth Elevation

Earthquake Activity

City Distance Mag. Time & Date
Minimum magnitude displayed is 2.5.

Coastal Water Temperatures

Place Temperature

Nearby Weather Stations